createdAt,value
2019-02-18T00:01:03.958Z,33.83
2019-02-18T00:03:32.118Z,33.89
2019-02-18T00:06:00.290Z,33.90
2019-02-18T00:08:28.447Z,33.95
2019-02-18T00:10:56.505Z,33.96
2019-02-18T00:13:24.861Z,33.99
2019-02-18T00:15:52.944Z,34.00
2019-02-18T00:18:21.050Z,34.02
2019-02-18T00:20:49.107Z,34.04
2019-02-18T00:23:17.197Z,34.06
2019-02-18T00:25:45.261Z,34.09
2019-02-18T00:28:13.675Z,34.13
2019-02-18T00:30:41.740Z,34.16
2019-02-18T00:33:09.807Z,34.19
2019-02-18T00:35:43.506Z,34.21
2019-02-18T00:38:11.720Z,34.26
2019-02-18T00:40:41.073Z,34.27
2019-02-18T00:43:09.156Z,34.31
2019-02-18T00:45:37.228Z,34.36
2019-02-18T00:48:05.304Z,34.38
2019-02-18T00:50:33.378Z,34.40
2019-02-18T00:53:03.945Z,34.44
2019-02-18T00:55:31.521Z,34.50
2019-02-18T00:57:59.636Z,34.56
2019-02-18T01:00:27.682Z,34.59
2019-02-18T01:02:55.751Z,34.61
2019-02-18T01:05:24.046Z,34.65
2019-02-18T01:07:52.263Z,34.71
2019-02-18T01:10:20.325Z,34.74
2019-02-18T01:12:48.391Z,34.73
2019-02-18T01:15:16.460Z,34.77
2019-02-18T01:17:46.230Z,34.78
2019-02-18T01:20:14.607Z,34.81
2019-02-18T01:22:44.649Z,34.83
2019-02-18T01:25:12.934Z,34.87
2019-02-18T01:27:41.070Z,34.86
2019-02-18T01:30:12.747Z,34.89
2019-02-18T01:32:42.432Z,34.93
2019-02-18T01:35:12.535Z,34.96
2019-02-18T01:37:45.582Z,35.02
2019-02-18T01:40:12.705Z,35.05
2019-02-18T01:42:41.150Z,35.08
2019-02-18T01:45:11.114Z,35.12
2019-02-18T01:47:41.287Z,35.16
2019-02-18T01:50:12.688Z,35.17
2019-02-18T01:52:41.902Z,35.20
2019-02-18T01:55:11.575Z,35.22
2019-02-18T01:57:40.181Z,35.26
2019-02-18T02:00:14.415Z,35.27
2019-02-18T02:02:42.802Z,35.31
2019-02-18T02:05:13.540Z,35.32
2019-02-18T02:07:41.675Z,35.35
2019-02-18T02:10:11.616Z,35.41
2019-02-18T02:12:39.839Z,35.48
2019-02-18T02:15:13.577Z,35.48
2019-02-18T02:17:42.360Z,35.50
2019-02-18T02:20:12.795Z,35.52
2019-02-18T02:22:40.884Z,35.58
2019-02-18T02:25:09.089Z,35.60
2019-02-18T02:27:37.505Z,35.63
2019-02-18T02:30:06.951Z,35.69
2019-02-18T02:32:36.100Z,35.73
2019-02-18T02:35:04.406Z,35.75
2019-02-18T02:37:32.487Z,35.81
2019-02-18T02:40:00.724Z,35.83
2019-02-18T02:42:28.885Z,35.83
2019-02-18T02:44:57.046Z,35.86
2019-02-18T02:47:25.226Z,35.88
2019-02-18T02:49:53.672Z,35.90
2019-02-18T02:52:21.682Z,35.93
2019-02-18T02:54:49.887Z,35.98
2019-02-18T02:57:17.935Z,36.01
2019-02-18T02:59:45.986Z,36.03
2019-02-18T03:02:14.048Z,36.05
2019-02-18T03:05:05.387Z,36.06
2019-02-18T03:07:33.456Z,36.08
2019-02-18T03:10:01.550Z,36.07
2019-02-18T03:12:29.659Z,36.10
2019-02-18T03:14:57.739Z,36.11
2019-02-18T03:17:26.111Z,36.13
2019-02-18T03:19:54.203Z,36.17
2019-02-18T03:22:22.243Z,36.20
2019-02-18T03:25:22.698Z,36.22
2019-02-18T03:27:55.768Z,36.24
2019-02-18T03:30:54.177Z,36.22
2019-02-18T03:33:35.047Z,36.31
2019-02-18T03:36:03.095Z,36.26
2019-02-18T03:38:32.096Z,36.30
2019-02-18T03:41:03.389Z,36.32
2019-02-18T03:43:31.364Z,36.34
2019-02-18T03:45:59.472Z,36.33
2019-02-18T03:48:27.798Z,36.37
2019-02-18T03:50:55.870Z,36.40
2019-02-18T03:53:24.047Z,36.40
2019-02-18T03:55:52.122Z,36.39
2019-02-18T03:58:20.200Z,36.43
2019-02-18T04:00:48.581Z,36.47
2019-02-18T04:03:16.622Z,36.46
2019-02-18T04:05:44.734Z,36.51
2019-02-18T04:08:12.895Z,36.51
2019-02-18T04:10:41.195Z,36.52
2019-02-18T04:13:09.310Z,36.54
2019-02-18T04:15:37.518Z,36.58
2019-02-18T04:18:05.726Z,36.63
2019-02-18T04:20:33.792Z,36.65
2019-02-18T04:23:01.881Z,36.68
2019-02-18T04:25:29.900Z,36.71
2019-02-18T04:27:57.975Z,36.75
2019-02-18T04:30:26.029Z,36.78
2019-02-18T04:32:54.393Z,36.81
2019-02-18T04:35:22.842Z,36.86
2019-02-18T04:37:50.947Z,36.90
2019-02-18T04:40:19.116Z,36.96
2019-02-18T04:42:48.020Z,37.02
2019-02-18T04:45:16.285Z,37.04
2019-02-18T04:47:44.350Z,37.07
2019-02-18T04:50:12.593Z,37.09
2019-02-18T04:52:41.798Z,37.10
2019-02-18T04:55:10.075Z,37.10
2019-02-18T04:57:38.625Z,37.14
2019-02-18T05:00:08.513Z,37.12
2019-02-18T05:02:36.845Z,37.18
2019-02-18T05:05:06.493Z,37.20
2019-02-18T05:07:35.687Z,37.22
2019-02-18T05:10:04.509Z,37.25
2019-02-18T05:12:32.608Z,37.28
2019-02-18T05:15:02.024Z,37.31
2019-02-18T05:17:30.273Z,37.34
2019-02-18T05:19:58.472Z,37.34
2019-02-18T05:22:26.945Z,37.38
2019-02-18T05:24:55.068Z,37.41
2019-02-18T05:27:33.072Z,37.43
2019-02-18T05:29:53.168Z,37.45
2019-02-18T05:32:21.250Z,37.48
2019-02-18T05:34:49.339Z,37.53
2019-02-18T05:37:18.167Z,37.54
2019-02-18T05:39:46.532Z,37.56
2019-02-18T05:42:14.592Z,37.58
2019-02-18T05:44:42.663Z,37.59
2019-02-18T05:47:10.705Z,37.61
2019-02-18T05:49:40.202Z,37.65
2019-02-18T05:52:09.471Z,37.63
2019-02-18T05:54:37.532Z,37.64
2019-02-18T05:57:05.633Z,37.66
2019-02-18T05:59:33.702Z,37.67
2019-02-18T06:02:07.005Z,37.66
2019-02-18T06:04:35.051Z,37.68
2019-02-18T06:07:03.104Z,37.68
2019-02-18T06:09:31.284Z,37.71
2019-02-18T06:11:59.564Z,37.74
2019-02-18T06:14:27.675Z,37.81
2019-02-18T06:16:56.873Z,37.82
2019-02-18T06:19:24.969Z,37.86
2019-02-18T06:21:53.299Z,37.89
2019-02-18T06:24:22.479Z,37.89
2019-02-18T06:26:50.567Z,37.94
2019-02-18T06:29:18.700Z,37.96
2019-02-18T06:31:46.734Z,37.97
2019-02-18T06:34:14.829Z,37.99
2019-02-18T06:36:43.081Z,38.01
2019-02-18T06:39:11.170Z,38.04
2019-02-18T06:41:39.343Z,38.07
2019-02-18T06:44:07.412Z,38.09
2019-02-18T06:46:38.675Z,38.12
2019-02-18T06:49:15.444Z,38.13
2019-02-18T06:51:43.758Z,38.16
2019-02-18T06:54:11.804Z,38.18
2019-02-18T06:57:08.521Z,38.21
2019-02-18T06:59:46.444Z,38.24
2019-02-18T07:02:19.541Z,38.21
2019-02-18T07:05:25.882Z,38.22
2019-02-18T07:08:12.202Z,38.24
2019-02-18T07:10:55.224Z,38.21
2019-02-18T07:13:23.299Z,38.17
2019-02-18T07:15:51.348Z,38.18
2019-02-18T07:18:19.407Z,38.19
2019-02-18T07:20:47.809Z,38.19
2019-02-18T07:23:16.367Z,38.18
2019-02-18T07:25:44.418Z,38.15
2019-02-18T07:28:12.445Z,38.12
2019-02-18T07:30:40.904Z,38.11
2019-02-18T07:33:10.919Z,38.06
2019-02-18T07:35:39.000Z,37.98
2019-02-18T07:38:07.089Z,37.92
2019-02-18T07:40:35.102Z,37.83
2019-02-18T07:43:03.147Z,37.77
2019-02-18T07:45:31.209Z,37.62
2019-02-18T07:47:59.261Z,37.57
2019-02-18T07:50:27.286Z,37.49
2019-02-18T07:52:55.332Z,37.43
2019-02-18T07:55:23.578Z,37.37
2019-02-18T07:57:51.620Z,37.30
2019-02-18T08:00:19.985Z,37.23
2019-02-18T08:02:48.609Z,37.13
2019-02-18T08:05:16.668Z,37.11
2019-02-18T08:07:44.722Z,37.01
2019-02-18T08:10:12.773Z,36.88
2019-02-18T08:12:40.821Z,36.73
2019-02-18T08:15:09.371Z,36.61
2019-02-18T08:17:37.406Z,36.50
2019-02-18T08:20:06.890Z,36.39
2019-02-18T08:22:35.342Z,36.24
2019-02-18T08:25:03.776Z,36.14
2019-02-18T08:27:31.945Z,36.05
2019-02-18T08:29:59.978Z,35.91
2019-02-18T08:32:28.015Z,35.79
2019-02-18T08:34:56.088Z,35.65
2019-02-18T08:37:24.133Z,35.53
2019-02-18T08:39:52.590Z,35.38
2019-02-18T08:42:20.919Z,35.24
2019-02-18T08:44:49.824Z,35.07
2019-02-18T08:47:18.189Z,34.97
2019-02-18T08:49:46.253Z,34.89
2019-02-18T08:52:14.284Z,34.82
2019-02-18T08:54:42.413Z,34.82
2019-02-18T08:57:10.449Z,34.75
2019-02-18T08:59:38.537Z,34.64
2019-02-18T09:02:06.541Z,34.47
2019-02-18T09:04:34.616Z,34.29
2019-02-18T09:07:02.633Z,34.31
2019-02-18T09:09:30.774Z,34.25
2019-02-18T09:11:58.833Z,34.15
2019-02-18T09:14:27.214Z,34.08
2019-02-18T09:16:55.597Z,33.89
2019-02-18T09:19:23.669Z,33.73
2019-02-18T09:22:01.751Z,33.58
2019-02-18T09:24:39.605Z,33.51
2019-02-18T09:27:07.648Z,33.73
2019-02-18T09:29:35.699Z,33.82
2019-02-18T09:32:03.754Z,33.64
2019-02-18T09:34:33.002Z,33.27
2019-02-18T09:37:01.097Z,33.04
2019-02-18T09:39:31.467Z,32.79
2019-02-18T09:41:59.190Z,32.50
2019-02-18T09:44:27.251Z,32.28
2019-02-18T09:46:55.340Z,31.96
2019-02-18T09:49:23.422Z,31.63
2019-02-18T09:51:51.823Z,31.30
2019-02-18T09:54:19.911Z,30.94
2019-02-18T09:56:48.394Z,30.64
2019-02-18T09:59:17.727Z,30.36
2019-02-18T10:01:46.931Z,30.15
2019-02-18T10:04:14.988Z,30.06
2019-02-18T10:06:44.254Z,29.85
2019-02-18T10:09:12.431Z,29.68
2019-02-18T10:11:40.552Z,29.46
2019-02-18T10:14:08.791Z,29.20
2019-02-18T10:16:37.005Z,29.02
2019-02-18T10:19:05.125Z,28.81
2019-02-18T10:21:34.208Z,28.75
2019-02-18T10:24:02.384Z,28.73
2019-02-18T10:26:30.523Z,28.77
2019-02-18T10:28:58.888Z,28.85
2019-02-18T10:31:26.942Z,28.89
2019-02-18T10:33:55.035Z,28.88
2019-02-18T10:36:23.548Z,28.84
2019-02-18T10:38:52.555Z,28.78
2019-02-18T10:41:20.582Z,28.75
2019-02-18T10:43:49.011Z,28.70
2019-02-18T10:46:17.028Z,28.54
2019-02-18T10:48:45.773Z,28.45
2019-02-18T10:51:14.142Z,28.27
2019-02-18T10:53:42.196Z,28.03
2019-02-18T10:56:10.629Z,27.76
2019-02-18T10:58:38.706Z,27.53
2019-02-18T11:01:07.043Z,27.39
2019-02-18T11:03:35.552Z,27.20
2019-02-18T11:06:03.634Z,26.99
2019-02-18T11:08:31.827Z,26.77
2019-02-18T11:10:59.897Z,26.50
2019-02-18T11:13:28.007Z,26.13
2019-02-18T11:15:56.196Z,25.83
2019-02-18T11:18:24.351Z,25.60
2019-02-18T11:20:53.200Z,25.28
2019-02-18T11:23:21.282Z,24.99
2019-02-18T11:25:49.355Z,24.68
2019-02-18T11:28:17.417Z,24.56
2019-02-18T11:30:45.764Z,24.41
2019-02-18T11:33:14.674Z,24.26
2019-02-18T11:35:43.026Z,23.97
2019-02-18T11:38:11.493Z,23.69
2019-02-18T11:40:39.619Z,23.49
2019-02-18T11:43:08.965Z,23.40
2019-02-18T11:45:37.541Z,23.24
2019-02-18T11:48:05.587Z,23.11
2019-02-18T11:50:34.138Z,23.04
2019-02-18T11:53:04.237Z,23.03
2019-02-18T11:55:33.710Z,22.94
2019-02-18T11:58:01.884Z,22.83
2019-02-18T12:00:30.036Z,22.72
2019-02-18T12:03:03.163Z,22.63
2019-02-18T12:05:28.658Z,22.47
2019-02-18T12:07:58.475Z,22.19
2019-02-18T12:10:26.580Z,22.05
2019-02-18T12:12:55.900Z,22.05
2019-02-18T12:15:24.738Z,22.19
2019-02-18T12:17:53.929Z,22.29
2019-02-18T12:20:26.192Z,22.21
2019-02-18T12:22:54.322Z,22.17
2019-02-18T12:25:22.805Z,22.21
2019-02-18T12:27:51.308Z,22.22
2019-02-18T12:30:19.762Z,22.21
2019-02-18T12:32:48.547Z,22.17
2019-02-18T12:35:16.708Z,22.09
2019-02-18T12:37:54.706Z,22.06
2019-02-18T12:40:14.721Z,21.94
2019-02-18T12:42:42.979Z,21.77
2019-02-18T12:45:11.428Z,21.67
2019-02-18T12:47:39.478Z,21.66
2019-02-18T12:50:07.893Z,21.62
2019-02-18T12:52:35.948Z,21.55
2019-02-18T12:55:05.507Z,21.40
2019-02-18T12:57:33.970Z,21.20
2019-02-18T13:00:02.137Z,21.20
2019-02-18T13:02:30.288Z,21.16
2019-02-18T13:04:58.404Z,21.09
2019-02-18T13:07:26.790Z,20.99
2019-02-18T13:09:56.636Z,20.97
2019-02-18T13:12:24.709Z,20.90
2019-02-18T13:14:53.436Z,20.82
2019-02-18T13:17:22.955Z,20.87
2019-02-18T13:19:50.986Z,20.87
2019-02-18T13:22:19.026Z,20.92
2019-02-18T13:24:47.079Z,20.95
2019-02-18T13:27:15.111Z,20.83
2019-02-18T13:29:43.131Z,20.79
2019-02-18T13:32:11.549Z,20.72
2019-02-18T13:34:39.977Z,20.66
2019-02-18T13:37:11.333Z,20.49
2019-02-18T13:39:39.345Z,20.30
2019-02-18T13:42:07.931Z,20.08
2019-02-18T13:44:36.356Z,19.87
2019-02-18T13:47:04.588Z,19.74
2019-02-18T13:49:32.590Z,19.63
2019-02-18T13:52:00.687Z,19.48
2019-02-18T13:54:28.795Z,19.39
2019-02-18T13:56:56.849Z,19.36
2019-02-18T13:59:26.006Z,19.36
2019-02-18T14:01:54.107Z,19.31
2019-02-18T14:04:22.157Z,19.33
2019-02-18T14:06:50.527Z,19.41
2019-02-18T14:09:19.080Z,19.39
2019-02-18T14:11:47.266Z,19.31
2019-02-18T14:14:15.357Z,19.26
2019-02-18T14:16:43.467Z,19.30
2019-02-18T14:19:11.506Z,19.29
2019-02-18T14:21:39.966Z,19.42
2019-02-18T14:24:09.992Z,19.41
2019-02-18T14:26:38.099Z,19.35
2019-02-18T14:29:06.206Z,19.37
2019-02-18T14:31:35.614Z,19.42
2019-02-18T14:34:03.682Z,19.44
2019-02-18T14:36:32.261Z,19.60
2019-02-18T14:39:01.313Z,19.68
2019-02-18T14:41:31.080Z,19.72
2019-02-18T14:43:59.467Z,19.75
2019-02-18T14:46:27.505Z,19.79
2019-02-18T14:48:55.801Z,19.86
2019-02-18T14:51:23.838Z,19.95
2019-02-18T14:53:52.032Z,20.04
2019-02-18T14:56:21.709Z,20.13
2019-02-18T14:58:49.738Z,20.21
2019-02-18T15:01:17.959Z,20.31
2019-02-18T15:03:46.029Z,20.39
2019-02-18T15:06:14.125Z,20.46
2019-02-18T15:08:42.179Z,20.49
2019-02-18T15:11:10.642Z,20.56
2019-02-18T15:13:38.749Z,20.66
2019-02-18T15:16:06.820Z,20.76
2019-02-18T15:18:35.170Z,20.82
2019-02-18T15:21:03.353Z,20.91
2019-02-18T15:23:31.486Z,21.00
2019-02-18T15:25:59.539Z,21.09
2019-02-18T15:28:27.608Z,21.18
2019-02-18T15:30:56.170Z,21.26
2019-02-18T15:33:24.267Z,21.38
2019-02-18T15:35:52.309Z,21.46
2019-02-18T15:38:20.426Z,21.52
2019-02-18T15:40:48.622Z,21.57
2019-02-18T15:43:17.059Z,21.67
2019-02-18T15:45:46.231Z,21.82
2019-02-18T15:48:14.473Z,21.94
2019-02-18T15:50:42.539Z,22.02
2019-02-18T15:53:11.972Z,22.06
2019-02-18T15:55:41.924Z,22.14
2019-02-18T15:58:10.407Z,22.24
2019-02-18T16:00:38.560Z,22.34
2019-02-18T16:03:06.633Z,22.44
2019-02-18T16:05:34.736Z,22.57
2019-02-18T16:08:02.820Z,22.70
2019-02-18T16:10:31.002Z,22.81
2019-02-18T16:13:00.227Z,22.93
2019-02-18T16:15:28.845Z,23.06
2019-02-18T16:17:56.945Z,23.20
2019-02-18T16:20:24.936Z,23.33
2019-02-18T16:22:53.029Z,23.46
2019-02-18T16:25:22.514Z,23.57
2019-02-18T16:27:50.876Z,23.73
2019-02-18T16:30:18.942Z,23.87
2019-02-18T16:32:47.104Z,24.02
2019-02-18T16:35:15.512Z,24.19
2019-02-18T16:37:43.970Z,24.34
2019-02-18T16:40:14.504Z,24.49
2019-02-18T16:42:43.068Z,24.63
2019-02-18T16:45:13.541Z,24.78
2019-02-18T16:47:41.954Z,24.94
2019-02-18T16:50:10.291Z,25.07
2019-02-18T16:52:38.449Z,25.21
2019-02-18T16:55:08.545Z,25.39
2019-02-18T16:57:38.184Z,25.63
2019-02-18T17:00:18.920Z,25.86
2019-02-18T17:02:47.085Z,26.13
2019-02-18T17:05:15.242Z,26.30
2019-02-18T17:07:43.359Z,26.45
2019-02-18T17:10:11.433Z,26.58
2019-02-18T17:12:39.561Z,26.72
2019-02-18T17:15:09.159Z,26.93
2019-02-18T17:17:37.980Z,27.16
2019-02-18T17:20:06.582Z,27.37
2019-02-18T17:22:34.903Z,27.54
2019-02-18T17:25:02.979Z,27.73
2019-02-18T17:27:32.391Z,27.89
2019-02-18T17:30:00.811Z,28.03
2019-02-18T17:32:28.968Z,28.12
2019-02-18T17:34:57.582Z,28.20
2019-02-18T17:37:25.847Z,28.28
2019-02-18T17:39:53.875Z,28.36
2019-02-18T17:42:23.520Z,28.46
2019-02-18T17:44:51.757Z,28.58
2019-02-18T17:47:22.026Z,28.69
2019-02-18T17:49:50.185Z,28.83
2019-02-18T17:52:18.883Z,28.92
2019-02-18T17:54:46.931Z,29.04
2019-02-18T17:57:15.132Z,29.16
2019-02-18T17:59:43.334Z,29.25
2019-02-18T18:02:11.491Z,29.39
2019-02-18T18:04:40.287Z,29.52
2019-02-18T18:07:10.708Z,29.65
2019-02-18T18:09:38.806Z,29.76
2019-02-18T18:12:08.695Z,29.88
2019-02-18T18:14:36.859Z,30.00
2019-02-18T18:17:04.905Z,30.11
2019-02-18T18:19:33.117Z,30.22
2019-02-18T18:22:01.483Z,30.36
2019-02-18T18:24:30.821Z,30.49
2019-02-18T18:26:58.865Z,30.58
2019-02-18T18:29:26.987Z,30.68
2019-02-18T18:31:56.485Z,30.78
2019-02-18T18:34:26.051Z,30.85
2019-02-18T18:36:54.094Z,30.93
2019-02-18T18:39:22.295Z,31.04
2019-02-18T18:41:50.846Z,31.10
2019-02-18T18:44:20.230Z,31.20
2019-02-18T18:46:48.267Z,31.29
2019-02-18T18:49:16.834Z,31.35
2019-02-18T18:51:44.861Z,31.45
2019-02-18T18:54:13.184Z,31.54
2019-02-18T18:56:41.217Z,31.62
2019-02-18T18:59:09.455Z,31.70
2019-02-18T19:01:37.570Z,31.79
2019-02-18T19:04:05.887Z,31.90
2019-02-18T19:06:34.967Z,31.98
2019-02-18T19:09:03.890Z,32.06
2019-02-18T19:11:32.357Z,32.13
2019-02-18T19:14:00.809Z,32.23
2019-02-18T19:16:29.125Z,32.30
2019-02-18T19:18:57.920Z,32.39
2019-02-18T19:21:26.003Z,32.46
2019-02-18T19:23:54.469Z,32.56
2019-02-18T19:26:22.510Z,32.63
2019-02-18T19:28:50.708Z,32.70
2019-02-18T19:31:18.760Z,32.79
2019-02-18T19:33:46.872Z,32.88
2019-02-18T19:36:15.170Z,32.96
2019-02-18T19:38:43.248Z,33.04
2019-02-18T19:41:11.325Z,33.11
2019-02-18T19:43:39.397Z,33.20
2019-02-18T19:46:07.715Z,33.28
2019-02-18T19:48:35.780Z,33.37
2019-02-18T19:51:04.148Z,33.46
2019-02-18T19:53:32.210Z,33.54
2019-02-18T19:56:20.524Z,33.62
2019-02-18T19:58:49.618Z,33.69
2019-02-18T20:01:18.140Z,33.73
2019-02-18T20:03:46.268Z,33.80
2019-02-18T20:06:14.725Z,33.90
2019-02-18T20:08:42.937Z,33.96
2019-02-18T20:11:12.468Z,34.02
2019-02-18T20:13:40.753Z,34.05
2019-02-18T20:16:08.813Z,34.10
2019-02-18T20:18:39.086Z,34.16
2019-02-18T20:21:07.196Z,34.22
2019-02-18T20:23:35.416Z,34.28
2019-02-18T20:26:03.513Z,34.35
2019-02-18T20:28:31.679Z,34.44
2019-02-18T20:30:59.788Z,34.50
2019-02-18T20:33:28.471Z,34.57
2019-02-18T20:35:56.648Z,34.64
2019-02-18T20:38:24.741Z,34.72
2019-02-18T20:40:52.829Z,34.79
2019-02-18T20:43:21.469Z,34.82
2019-02-18T20:45:49.563Z,34.90
2019-02-18T20:48:17.603Z,34.99
2019-02-18T20:50:47.609Z,35.03
2019-02-18T20:53:16.181Z,35.09
2019-02-18T20:55:44.785Z,35.15
2019-02-18T20:58:12.899Z,35.21
2019-02-18T21:00:42.098Z,35.24
2019-02-18T21:03:10.132Z,35.30
2019-02-18T21:05:38.685Z,35.37
2019-02-18T21:08:06.730Z,35.42
2019-02-18T21:10:34.905Z,35.46
2019-02-18T21:13:03.214Z,35.49
2019-02-18T21:15:31.274Z,35.54
2019-02-18T21:17:59.572Z,35.59
2019-02-18T21:20:28.392Z,35.67
2019-02-18T21:22:57.601Z,35.73
2019-02-18T21:25:25.670Z,35.78
2019-02-18T21:27:53.887Z,35.86
2019-02-18T21:30:22.201Z,35.89
2019-02-18T21:32:50.263Z,35.92
2019-02-18T21:35:18.366Z,35.95
2019-02-18T21:37:46.404Z,36.00
2019-02-18T21:40:14.504Z,36.06
2019-02-18T21:42:42.579Z,36.12
2019-02-18T21:45:11.095Z,36.17
2019-02-18T21:47:39.353Z,36.20
2019-02-18T21:50:08.156Z,36.24
2019-02-18T21:52:36.556Z,36.32
2019-02-18T21:55:05.016Z,36.36
2019-02-18T21:57:33.049Z,36.40
2019-02-18T22:00:01.139Z,36.43
2019-02-18T22:02:29.195Z,36.48
2019-02-18T22:04:58.112Z,36.52
2019-02-18T22:07:26.196Z,36.55
2019-02-18T22:09:54.543Z,36.56
2019-02-18T22:12:22.600Z,36.59
2019-02-18T22:14:50.712Z,36.62
2019-02-18T22:17:18.766Z,36.62
2019-02-18T22:19:47.880Z,36.66
2019-02-18T22:22:15.968Z,36.67
2019-02-18T22:24:44.034Z,36.72
2019-02-18T22:27:12.792Z,36.79
2019-02-18T22:29:40.823Z,36.86
2019-02-18T22:32:08.888Z,36.94
2019-02-18T22:34:36.930Z,37.00
2019-02-18T22:37:05.494Z,37.06
2019-02-18T22:39:33.857Z,37.12
2019-02-18T22:42:01.926Z,37.22
2019-02-18T22:44:31.138Z,37.28
2019-02-18T22:47:01.588Z,37.34
2019-02-18T22:49:29.718Z,37.36
2019-02-18T22:51:57.767Z,37.37
2019-02-18T22:54:26.109Z,37.42
2019-02-18T22:56:54.165Z,37.44
2019-02-18T22:59:22.187Z,37.47
2019-02-18T23:01:50.423Z,37.52
2019-02-18T23:04:18.472Z,37.56
2019-02-18T23:06:46.556Z,37.62
2019-02-18T23:09:15.109Z,37.67
2019-02-18T23:11:43.164Z,37.70
2019-02-18T23:14:11.245Z,37.75
2019-02-18T23:16:40.887Z,37.81
2019-02-18T23:19:09.304Z,37.87
2019-02-18T23:21:37.367Z,37.91
2019-02-18T23:24:05.662Z,37.98
2019-02-18T23:26:33.707Z,38.02
2019-02-18T23:29:01.776Z,38.06
2019-02-18T23:31:30.111Z,38.08
2019-02-18T23:33:58.135Z,38.13
2019-02-18T23:36:26.200Z,38.14
2019-02-18T23:38:54.256Z,38.16
2019-02-18T23:41:22.367Z,38.19
2019-02-18T23:43:50.429Z,38.24
2019-02-18T23:46:18.476Z,38.30
2019-02-18T23:48:46.842Z,38.35
2019-02-18T23:51:14.915Z,38.36
2019-02-18T23:53:43.321Z,38.39
2019-02-18T23:56:12.570Z,38.41
2019-02-18T23:58:40.621Z,38.44
